sensor_id;sensor_type;location;lat;lon;timestamp;P1;durP1;ratioP1;P2;durP2;ratioP2
24650;SDS011;12783;48.824;8.662;2023-08-06T00:01:48;2.38;;;1.52;;
24650;SDS011;12783;48.824;8.662;2023-08-06T00:04:15;1.90;;;1.65;;
24650;SDS011;12783;48.824;8.662;2023-08-06T00:06:42;2.67;;;1.83;;
24650;SDS011;12783;48.824;8.662;2023-08-06T00:09:09;3.22;;;1.42;;
24650;SDS011;12783;48.824;8.662;2023-08-06T00:11:36;2.90;;;1.67;;
24650;SDS011;12783;48.824;8.662;2023-08-06T00:14:02;3.17;;;1.92;;
24650;SDS011;12783;48.824;8.662;2023-08-06T00:16:29;2.45;;;1.90;;
24650;SDS011;12783;48.824;8.662;2023-08-06T00:18:56;3.67;;;1.75;;
24650;SDS011;12783;48.824;8.662;2023-08-06T00:21:23;3.47;;;2.20;;
24650;SDS011;12783;48.824;8.662;2023-08-06T00:23:50;3.15;;;2.00;;
24650;SDS011;12783;48.824;8.662;2023-08-06T00:26:18;4.18;;;1.60;;
24650;SDS011;12783;48.824;8.662;2023-08-06T00:28:45;3.85;;;2.00;;
24650;SDS011;12783;48.824;8.662;2023-08-06T00:31:12;2.85;;;1.52;;
24650;SDS011;12783;48.824;8.662;2023-08-06T00:33:39;5.47;;;2.00;;
24650;SDS011;12783;48.824;8.662;2023-08-06T00:36:06;2.85;;;1.75;;
24650;SDS011;12783;48.824;8.662;2023-08-06T00:38:33;1.75;;;1.65;;
24650;SDS011;12783;48.824;8.662;2023-08-06T00:41:00;2.70;;;1.55;;
24650;SDS011;12783;48.824;8.662;2023-08-06T00:43:27;5.45;;;1.88;;
24650;SDS011;12783;48.824;8.662;2023-08-06T00:45:54;5.50;;;2.13;;
24650;SDS011;12783;48.824;8.662;2023-08-06T00:48:21;3.95;;;1.80;;
24650;SDS011;12783;48.824;8.662;2023-08-06T00:50:48;4.10;;;1.85;;
24650;SDS011;12783;48.824;8.662;2023-08-06T00:53:15;5.78;;;2.08;;
24650;SDS011;12783;48.824;8.662;2023-08-06T00:55:43;3.35;;;1.83;;
24650;SDS011;12783;48.824;8.662;2023-08-06T00:58:12;4.03;;;1.90;;
24650;SDS011;12783;48.824;8.662;2023-08-06T01:00:40;2.83;;;1.90;;
24650;SDS011;12783;48.824;8.662;2023-08-06T01:03:07;2.75;;;1.70;;
24650;SDS011;12783;48.824;8.662;2023-08-06T01:05:34;4.15;;;1.90;;
24650;SDS011;12783;48.824;8.662;2023-08-06T01:10:39;2.60;;;1.80;;
24650;SDS011;12783;48.824;8.662;2023-08-06T01:13:45;3.58;;;1.95;;
24650;SDS011;12783;48.824;8.662;2023-08-06T01:16:17;4.20;;;1.70;;
24650;SDS011;12783;48.824;8.662;2023-08-06T01:18:46;6.47;;;2.00;;
24650;SDS011;12783;48.824;8.662;2023-08-06T01:21:16;6.38;;;1.98;;
24650;SDS011;12783;48.824;8.662;2023-08-06T01:23:44;3.58;;;1.80;;
24650;SDS011;12783;48.824;8.662;2023-08-06T01:26:27;4.05;;;2.03;;
24650;SDS011;12783;48.824;8.662;2023-08-06T01:29:10;3.47;;;1.90;;
24650;SDS011;12783;48.824;8.662;2023-08-06T01:31:44;3.47;;;1.73;;
24650;SDS011;12783;48.824;8.662;2023-08-06T01:34:17;4.07;;;1.70;;
24650;SDS011;12783;48.824;8.662;2023-08-06T01:39:19;2.28;;;1.73;;
24650;SDS011;12783;48.824;8.662;2023-08-06T01:41:50;2.20;;;1.70;;
24650;SDS011;12783;48.824;8.662;2023-08-06T01:44:18;2.47;;;1.88;;
24650;SDS011;12783;48.824;8.662;2023-08-06T01:46:45;3.50;;;1.80;;
24650;SDS011;12783;48.824;8.662;2023-08-06T01:49:12;3.58;;;1.75;;
24650;SDS011;12783;48.824;8.662;2023-08-06T01:51:39;3.15;;;1.67;;
24650;SDS011;12783;48.824;8.662;2023-08-06T01:54:05;3.60;;;1.73;;
24650;SDS011;12783;48.824;8.662;2023-08-06T01:56:32;4.28;;;1.95;;
24650;SDS011;12783;48.824;8.662;2023-08-06T01:58:59;5.13;;;1.52;;
24650;SDS011;12783;48.824;8.662;2023-08-06T02:01:30;3.72;;;1.73;;
24650;SDS011;12783;48.824;8.662;2023-08-06T02:03:57;3.92;;;1.48;;
24650;SDS011;12783;48.824;8.662;2023-08-06T02:06:24;2.65;;;1.60;;
24650;SDS011;12783;48.824;8.662;2023-08-06T02:08:50;3.22;;;1.73;;
24650;SDS011;12783;48.824;8.662;2023-08-06T02:11:17;4.00;;;1.52;;
24650;SDS011;12783;48.824;8.662;2023-08-06T02:13:45;6.60;;;1.90;;
24650;SDS011;12783;48.824;8.662;2023-08-06T02:16:12;3.78;;;1.55;;
24650;SDS011;12783;48.824;8.662;2023-08-06T02:18:39;6.18;;;2.20;;
24650;SDS011;12783;48.824;8.662;2023-08-06T02:21:06;2.60;;;1.60;;
24650;SDS011;12783;48.824;8.662;2023-08-06T02:23:33;4.38;;;1.90;;
24650;SDS011;12783;48.824;8.662;2023-08-06T02:26:00;5.15;;;1.88;;
24650;SDS011;12783;48.824;8.662;2023-08-06T02:28:30;5.35;;;1.73;;
24650;SDS011;12783;48.824;8.662;2023-08-06T02:30:57;7.63;;;1.80;;
24650;SDS011;12783;48.824;8.662;2023-08-06T02:33:25;5.38;;;1.80;;
24650;SDS011;12783;48.824;8.662;2023-08-06T02:35:58;4.90;;;1.95;;
24650;SDS011;12783;48.824;8.662;2023-08-06T02:38:27;7.95;;;1.52;;
24650;SDS011;12783;48.824;8.662;2023-08-06T02:40:54;5.80;;;1.73;;
24650;SDS011;12783;48.824;8.662;2023-08-06T02:43:21;4.78;;;2.00;;
24650;SDS011;12783;48.824;8.662;2023-08-06T02:45:48;8.05;;;1.83;;
24650;SDS011;12783;48.824;8.662;2023-08-06T02:48:15;8.00;;;1.80;;
24650;SDS011;12783;48.824;8.662;2023-08-06T02:50:44;5.65;;;1.92;;
24650;SDS011;12783;48.824;8.662;2023-08-06T02:53:11;3.30;;;1.58;;
24650;SDS011;12783;48.824;8.662;2023-08-06T02:55:44;5.45;;;1.80;;
24650;SDS011;12783;48.824;8.662;2023-08-06T02:58:14;3.47;;;1.67;;
24650;SDS011;12783;48.824;8.662;2023-08-06T03:00:41;4.43;;;1.73;;
24650;SDS011;12783;48.824;8.662;2023-08-06T03:03:10;5.72;;;1.92;;
24650;SDS011;12783;48.824;8.662;2023-08-06T03:05:37;2.97;;;1.60;;
24650;SDS011;12783;48.824;8.662;2023-08-06T03:08:04;5.10;;;1.67;;
24650;SDS011;12783;48.824;8.662;2023-08-06T03:10:31;5.53;;;1.70;;
24650;SDS011;12783;48.824;8.662;2023-08-06T03:12:57;1.33;;;1.23;;
24650;SDS011;12783;48.824;8.662;2023-08-06T03:15:24;4.18;;;1.55;;
24650;SDS011;12783;48.824;8.662;2023-08-06T03:17:51;2.40;;;1.67;;
24650;SDS011;12783;48.824;8.662;2023-08-06T03:20:18;4.60;;;1.50;;
24650;SDS011;12783;48.824;8.662;2023-08-06T03:22:45;5.05;;;1.35;;
24650;SDS011;12783;48.824;8.662;2023-08-06T03:25:12;3.63;;;1.35;;
24650;SDS011;12783;48.824;8.662;2023-08-06T03:27:38;2.15;;;1.30;;
24650;SDS011;12783;48.824;8.662;2023-08-06T03:30:05;2.25;;;0.90;;
24650;SDS011;12783;48.824;8.662;2023-08-06T03:32:33;1.50;;;1.17;;
24650;SDS011;12783;48.824;8.662;2023-08-06T03:35:00;2.53;;;1.10;;
24650;SDS011;12783;48.824;8.662;2023-08-06T03:37:27;1.83;;;1.10;;
24650;SDS011;12783;48.824;8.662;2023-08-06T03:39:54;2.30;;;1.10;;
24650;SDS011;12783;48.824;8.662;2023-08-06T03:42:21;1.77;;;0.93;;
24650;SDS011;12783;48.824;8.662;2023-08-06T03:44:47;1.85;;;0.88;;
24650;SDS011;12783;48.824;8.662;2023-08-06T03:47:14;1.42;;;0.77;;
24650;SDS011;12783;48.824;8.662;2023-08-06T03:49:41;4.47;;;0.80;;
24650;SDS011;12783;48.824;8.662;2023-08-06T03:52:09;1.75;;;0.93;;
24650;SDS011;12783;48.824;8.662;2023-08-06T03:54:36;2.63;;;0.90;;
24650;SDS011;12783;48.824;8.662;2023-08-06T03:57:03;2.55;;;0.60;;
24650;SDS011;12783;48.824;8.662;2023-08-06T03:59:30;2.08;;;0.95;;
24650;SDS011;12783;48.824;8.662;2023-08-06T04:01:57;2.03;;;0.73;;
24650;SDS011;12783;48.824;8.662;2023-08-06T04:04:24;2.58;;;0.77;;
24650;SDS011;12783;48.824;8.662;2023-08-06T04:06:51;2.60;;;0.70;;
24650;SDS011;12783;48.824;8.662;2023-08-06T04:09:18;2.85;;;0.80;;
24650;SDS011;12783;48.824;8.662;2023-08-06T04:11:45;1.92;;;0.57;;
24650;SDS011;12783;48.824;8.662;2023-08-06T04:14:12;1.35;;;0.60;;
24650;SDS011;12783;48.824;8.662;2023-08-06T04:16:38;3.80;;;0.80;;
24650;SDS011;12783;48.824;8.662;2023-08-06T04:19:05;1.95;;;0.70;;
24650;SDS011;12783;48.824;8.662;2023-08-06T04:21:32;2.47;;;0.60;;
24650;SDS011;12783;48.824;8.662;2023-08-06T04:23:59;2.53;;;0.70;;
24650;SDS011;12783;48.824;8.662;2023-08-06T04:26:26;0.95;;;0.47;;
24650;SDS011;12783;48.824;8.662;2023-08-06T04:28:53;4.10;;;1.00;;
24650;SDS011;12783;48.824;8.662;2023-08-06T04:31:20;1.63;;;0.65;;
24650;SDS011;12783;48.824;8.662;2023-08-06T04:33:48;6.53;;;0.90;;
24650;SDS011;12783;48.824;8.662;2023-08-06T04:36:15;1.83;;;0.60;;
24650;SDS011;12783;48.824;8.662;2023-08-06T04:38:42;2.42;;;0.70;;
24650;SDS011;12783;48.824;8.662;2023-08-06T04:41:11;2.13;;;0.80;;
24650;SDS011;12783;48.824;8.662;2023-08-06T04:43:38;1.33;;;0.60;;
24650;SDS011;12783;48.824;8.662;2023-08-06T04:46:05;2.30;;;0.55;;
24650;SDS011;12783;48.824;8.662;2023-08-06T04:48:32;1.40;;;0.57;;
24650;SDS011;12783;48.824;8.662;2023-08-06T04:50:59;3.42;;;0.82;;
24650;SDS011;12783;48.824;8.662;2023-08-06T04:53:26;1.13;;;0.50;;
24650;SDS011;12783;48.824;8.662;2023-08-06T04:55:53;0.98;;;0.50;;
24650;SDS011;12783;48.824;8.662;2023-08-06T04:58:20;2.70;;;0.43;;
24650;SDS011;12783;48.824;8.662;2023-08-06T05:00:47;1.70;;;0.60;;
24650;SDS011;12783;48.824;8.662;2023-08-06T05:03:14;3.38;;;0.65;;
24650;SDS011;12783;48.824;8.662;2023-08-06T05:05:40;5.32;;;0.85;;
24650;SDS011;12783;48.824;8.662;2023-08-06T05:08:13;0.73;;;0.50;;
24650;SDS011;12783;48.824;8.662;2023-08-06T05:10:44;1.27;;;0.47;;
24650;SDS011;12783;48.824;8.662;2023-08-06T05:13:11;1.92;;;0.68;;
24650;SDS011;12783;48.824;8.662;2023-08-06T05:15:39;1.85;;;0.47;;
24650;SDS011;12783;48.824;8.662;2023-08-06T05:18:08;0.73;;;0.40;;
24650;SDS011;12783;48.824;8.662;2023-08-06T05:20:36;0.40;;;0.30;;
24650;SDS011;12783;48.824;8.662;2023-08-06T05:23:06;0.85;;;0.30;;
24650;SDS011;12783;48.824;8.662;2023-08-06T05:25:36;0.80;;;0.40;;
24650;SDS011;12783;48.824;8.662;2023-08-06T05:28:04;0.98;;;0.50;;
24650;SDS011;12783;48.824;8.662;2023-08-06T05:30:31;0.85;;;0.30;;
24650;SDS011;12783;48.824;8.662;2023-08-06T05:32:58;1.95;;;0.50;;
24650;SDS011;12783;48.824;8.662;2023-08-06T05:35:25;0.30;;;0.30;;
24650;SDS011;12783;48.824;8.662;2023-08-06T05:37:52;1.05;;;0.32;;
24650;SDS011;12783;48.824;8.662;2023-08-06T05:40:19;2.38;;;0.25;;
24650;SDS011;12783;48.824;8.662;2023-08-06T05:42:46;0.82;;;0.20;;
24650;SDS011;12783;48.824;8.662;2023-08-06T05:45:13;0.82;;;0.13;;
24650;SDS011;12783;48.824;8.662;2023-08-06T05:47:40;0.85;;;0.10;;
24650;SDS011;12783;48.824;8.662;2023-08-06T05:50:07;0.98;;;0.20;;
24650;SDS011;12783;48.824;8.662;2023-08-06T05:52:35;0.15;;;0.10;;
24650;SDS011;12783;48.824;8.662;2023-08-06T05:55:02;1.10;;;0.15;;
24650;SDS011;12783;48.824;8.662;2023-08-06T05:57:29;0.28;;;0.10;;
24650;SDS011;12783;48.824;8.662;2023-08-06T05:59:56;0.40;;;0.20;;
24650;SDS011;12783;48.824;8.662;2023-08-06T06:02:23;1.40;;;0.10;;
24650;SDS011;12783;48.824;8.662;2023-08-06T06:04:50;0.80;;;0.10;;
24650;SDS011;12783;48.824;8.662;2023-08-06T06:07:17;0.55;;;0.10;;
24650;SDS011;12783;48.824;8.662;2023-08-06T06:09:44;1.33;;;0.10;;
24650;SDS011;12783;48.824;8.662;2023-08-06T06:12:10;1.23;;;0.30;;
24650;SDS011;12783;48.824;8.662;2023-08-06T06:14:37;0.10;;;0.10;;
24650;SDS011;12783;48.824;8.662;2023-08-06T06:17:04;0.20;;;0.10;;
24650;SDS011;12783;48.824;8.662;2023-08-06T06:19:32;1.05;;;0.10;;
24650;SDS011;12783;48.824;8.662;2023-08-06T06:21:59;1.25;;;0.30;;
24650;SDS011;12783;48.824;8.662;2023-08-06T06:24:26;0.10;;;0.10;;
24650;SDS011;12783;48.824;8.662;2023-08-06T06:26:53;0.10;;;0.10;;
24650;SDS011;12783;48.824;8.662;2023-08-06T06:29:20;0.20;;;0.10;;
24650;SDS011;12783;48.824;8.662;2023-08-06T06:31:47;0.10;;;0.10;;
24650;SDS011;12783;48.824;8.662;2023-08-06T06:34:15;0.17;;;0.10;;
24650;SDS011;12783;48.824;8.662;2023-08-06T06:36:41;0.35;;;0.30;;
24650;SDS011;12783;48.824;8.662;2023-08-06T06:39:08;0.40;;;0.40;;
24650;SDS011;12783;48.824;8.662;2023-08-06T06:41:35;2.80;;;0.55;;
24650;SDS011;12783;48.824;8.662;2023-08-06T06:44:02;0.60;;;0.50;;
24650;SDS011;12783;48.824;8.662;2023-08-06T06:46:29;1.13;;;0.50;;
24650;SDS011;12783;48.824;8.662;2023-08-06T06:48:56;0.50;;;0.15;;
24650;SDS011;12783;48.824;8.662;2023-08-06T06:51:23;0.00;;;0.00;;
24650;SDS011;12783;48.824;8.662;2023-08-06T06:53:50;0.40;;;0.38;;
24650;SDS011;12783;48.824;8.662;2023-08-06T06:56:17;0.10;;;0.10;;
24650;SDS011;12783;48.824;8.662;2023-08-06T06:58:44;0.50;;;0.50;;
24650;SDS011;12783;48.824;8.662;2023-08-06T07:01:10;1.55;;;0.15;;
24650;SDS011;12783;48.824;8.662;2023-08-06T07:03:38;0.63;;;0.30;;
24650;SDS011;12783;48.824;8.662;2023-08-06T07:06:06;0.30;;;0.30;;
24650;SDS011;12783;48.824;8.662;2023-08-06T07:08:33;0.20;;;0.20;;
24650;SDS011;12783;48.824;8.662;2023-08-06T07:11:01;0.55;;;0.20;;
24650;SDS011;12783;48.824;8.662;2023-08-06T07:13:33;0.65;;;0.32;;
24650;SDS011;12783;48.824;8.662;2023-08-06T07:16:01;0.15;;;0.15;;
24650;SDS011;12783;48.824;8.662;2023-08-06T07:18:28;0.22;;;0.20;;
24650;SDS011;12783;48.824;8.662;2023-08-06T07:20:55;0.10;;;0.10;;
24650;SDS011;12783;48.824;8.662;2023-08-06T07:23:23;0.65;;;0.00;;
24650;SDS011;12783;48.824;8.662;2023-08-06T07:25:52;0.82;;;0.10;;
24650;SDS011;12783;48.824;8.662;2023-08-06T07:28:19;1.17;;;0.20;;
24650;SDS011;12783;48.824;8.662;2023-08-06T07:30:46;0.25;;;0.13;;
24650;SDS011;12783;48.824;8.662;2023-08-06T07:33:14;0.10;;;0.10;;
24650;SDS011;12783;48.824;8.662;2023-08-06T07:35:41;0.10;;;0.10;;
24650;SDS011;12783;48.824;8.662;2023-08-06T07:38:09;0.45;;;0.13;;
24650;SDS011;12783;48.824;8.662;2023-08-06T07:40:36;0.00;;;0.00;;
24650;SDS011;12783;48.824;8.662;2023-08-06T07:43:04;0.10;;;0.10;;
24650;SDS011;12783;48.824;8.662;2023-08-06T07:45:32;0.17;;;0.00;;
24650;SDS011;12783;48.824;8.662;2023-08-06T07:48:02;0.00;;;0.00;;
24650;SDS011;12783;48.824;8.662;2023-08-06T07:50:30;0.00;;;0.00;;
24650;SDS011;12783;48.824;8.662;2023-08-06T07:52:57;0.00;;;0.00;;
24650;SDS011;12783;48.824;8.662;2023-08-06T07:55:25;0.10;;;0.10;;
24650;SDS011;12783;48.824;8.662;2023-08-06T07:57:53;0.50;;;0.10;;
24650;SDS011;12783;48.824;8.662;2023-08-06T08:00:20;0.10;;;0.08;;
24650;SDS011;12783;48.824;8.662;2023-08-06T08:02:47;3.58;;;0.10;;
24650;SDS011;12783;48.824;8.662;2023-08-06T08:05:14;0.63;;;0.00;;
24650;SDS011;12783;48.824;8.662;2023-08-06T08:07:42;2.35;;;0.10;;
24650;SDS011;12783;48.824;8.662;2023-08-06T08:10:10;0.00;;;0.00;;
24650;SDS011;12783;48.824;8.662;2023-08-06T08:12:37;0.20;;;0.10;;
24650;SDS011;12783;48.824;8.662;2023-08-06T08:15:04;0.08;;;0.08;;
24650;SDS011;12783;48.824;8.662;2023-08-06T08:17:32;0.10;;;0.10;;
24650;SDS011;12783;48.824;8.662;2023-08-06T08:20:01;0.05;;;0.05;;
24650;SDS011;12783;48.824;8.662;2023-08-06T08:22:28;0.10;;;0.10;;
24650;SDS011;12783;48.824;8.662;2023-08-06T08:24:55;0.08;;;0.05;;
24650;SDS011;12783;48.824;8.662;2023-08-06T08:27:21;0.10;;;0.10;;
24650;SDS011;12783;48.824;8.662;2023-08-06T08:29:48;0.00;;;0.00;;
24650;SDS011;12783;48.824;8.662;2023-08-06T08:32:15;0.10;;;0.10;;
24650;SDS011;12783;48.824;8.662;2023-08-06T08:34:42;0.10;;;0.10;;
24650;SDS011;12783;48.824;8.662;2023-08-06T08:37:10;0.00;;;0.00;;
24650;SDS011;12783;48.824;8.662;2023-08-06T08:39:37;0.55;;;0.30;;
24650;SDS011;12783;48.824;8.662;2023-08-06T08:42:04;0.00;;;0.00;;
24650;SDS011;12783;48.824;8.662;2023-08-06T08:44:33;0.40;;;0.10;;
24650;SDS011;12783;48.824;8.662;2023-08-06T08:47:03;0.65;;;0.10;;
24650;SDS011;12783;48.824;8.662;2023-08-06T08:49:32;0.30;;;0.20;;
24650;SDS011;12783;48.824;8.662;2023-08-06T08:52:02;0.20;;;0.10;;
24650;SDS011;12783;48.824;8.662;2023-08-06T08:54:33;0.17;;;0.10;;
24650;SDS011;12783;48.824;8.662;2023-08-06T08:57:01;0.30;;;0.10;;
24650;SDS011;12783;48.824;8.662;2023-08-06T08:59:28;0.10;;;0.10;;
24650;SDS011;12783;48.824;8.662;2023-08-06T09:01:55;0.75;;;0.10;;
24650;SDS011;12783;48.824;8.662;2023-08-06T09:04:24;0.00;;;0.00;;
24650;SDS011;12783;48.824;8.662;2023-08-06T09:06:59;0.08;;;0.05;;
24650;SDS011;12783;48.824;8.662;2023-08-06T09:09:28;1.98;;;0.10;;
24650;SDS011;12783;48.824;8.662;2023-08-06T09:12:00;0.17;;;0.17;;
24650;SDS011;12783;48.824;8.662;2023-08-06T09:14:32;0.00;;;0.00;;
24650;SDS011;12783;48.824;8.662;2023-08-06T09:16:59;0.10;;;0.10;;
24650;SDS011;12783;48.824;8.662;2023-08-06T09:19:27;0.10;;;0.10;;
24650;SDS011;12783;48.824;8.662;2023-08-06T09:21:55;0.10;;;0.10;;
24650;SDS011;12783;48.824;8.662;2023-08-06T09:24:23;0.25;;;0.10;;
24650;SDS011;12783;48.824;8.662;2023-08-06T09:26:50;1.60;;;0.20;;
24650;SDS011;12783;48.824;8.662;2023-08-06T09:29:17;0.10;;;0.10;;
24650;SDS011;12783;48.824;8.662;2023-08-06T09:31:45;0.17;;;0.10;;
24650;SDS011;12783;48.824;8.662;2023-08-06T09:36:49;0.05;;;0.05;;
24650;SDS011;12783;48.824;8.662;2023-08-06T09:39:19;0.00;;;0.00;;
24650;SDS011;12783;48.824;8.662;2023-08-06T09:41:48;0.10;;;0.10;;
24650;SDS011;12783;48.824;8.662;2023-08-06T09:44:21;0.00;;;0.00;;
24650;SDS011;12783;48.824;8.662;2023-08-06T09:46:52;0.10;;;0.10;;
24650;SDS011;12783;48.824;8.662;2023-08-06T09:49:28;0.00;;;0.00;;
24650;SDS011;12783;48.824;8.662;2023-08-06T09:51:58;0.10;;;0.10;;
24650;SDS011;12783;48.824;8.662;2023-08-06T09:54:26;0.10;;;0.10;;
24650;SDS011;12783;48.824;8.662;2023-08-06T09:56:55;0.17;;;0.17;;
24650;SDS011;12783;48.824;8.662;2023-08-06T09:59:23;0.40;;;0.20;;
24650;SDS011;12783;48.824;8.662;2023-08-06T10:01:50;0.10;;;0.10;;
24650;SDS011;12783;48.824;8.662;2023-08-06T10:04:19;0.60;;;0.20;;
24650;SDS011;12783;48.824;8.662;2023-08-06T10:06:52;2.92;;;0.30;;
24650;SDS011;12783;48.824;8.662;2023-08-06T10:09:20;0.57;;;0.20;;
24650;SDS011;12783;48.824;8.662;2023-08-06T10:11:49;0.25;;;0.25;;
24650;SDS011;12783;48.824;8.662;2023-08-06T10:14:21;0.10;;;0.10;;
24650;SDS011;12783;48.824;8.662;2023-08-06T10:16:53;0.40;;;0.30;;
24650;SDS011;12783;48.824;8.662;2023-08-06T10:19:23;0.80;;;0.80;;
24650;SDS011;12783;48.824;8.662;2023-08-06T10:24:53;1.92;;;1.70;;
24650;SDS011;12783;48.824;8.662;2023-08-06T10:27:32;1.65;;;1.02;;
24650;SDS011;12783;48.824;8.662;2023-08-06T10:33:02;1.50;;;0.80;;
24650;SDS011;12783;48.824;8.662;2023-08-06T10:35:46;0.90;;;0.80;;
24650;SDS011;12783;48.824;8.662;2023-08-06T10:38:22;0.75;;;0.75;;
24650;SDS011;12783;48.824;8.662;2023-08-06T10:43:26;0.80;;;0.80;;
24650;SDS011;12783;48.824;8.662;2023-08-06T10:45:56;1.10;;;0.82;;
24650;SDS011;12783;48.824;8.662;2023-08-06T10:48:28;2.72;;;1.15;;
24650;SDS011;12783;48.824;8.662;2023-08-06T10:51:07;2.15;;;1.25;;
24650;SDS011;12783;48.824;8.662;2023-08-06T10:53:37;1.42;;;1.33;;
24650;SDS011;12783;48.824;8.662;2023-08-06T10:56:12;4.65;;;1.52;;
24650;SDS011;12783;48.824;8.662;2023-08-06T10:58:41;3.45;;;2.10;;
24650;SDS011;12783;48.824;8.662;2023-08-06T11:01:09;4.03;;;2.13;;
24650;SDS011;12783;48.824;8.662;2023-08-06T11:03:37;4.18;;;2.22;;
24650;SDS011;12783;48.824;8.662;2023-08-06T11:06:09;4.47;;;1.90;;
24650;SDS011;12783;48.824;8.662;2023-08-06T11:08:37;3.45;;;2.28;;
24650;SDS011;12783;48.824;8.662;2023-08-06T11:11:13;4.03;;;2.25;;
24650;SDS011;12783;48.824;8.662;2023-08-06T11:13:42;5.07;;;2.42;;
24650;SDS011;12783;48.824;8.662;2023-08-06T11:16:12;5.63;;;2.53;;
24650;SDS011;12783;48.824;8.662;2023-08-06T11:18:49;4.15;;;2.20;;
24650;SDS011;12783;48.824;8.662;2023-08-06T11:21:19;4.28;;;2.45;;
24650;SDS011;12783;48.824;8.662;2023-08-06T11:23:47;4.93;;;2.92;;
24650;SDS011;12783;48.824;8.662;2023-08-06T11:26:18;5.80;;;3.00;;
24650;SDS011;12783;48.824;8.662;2023-08-06T11:28:46;6.15;;;3.72;;
24650;SDS011;12783;48.824;8.662;2023-08-06T11:31:20;8.10;;;3.35;;
24650;SDS011;12783;48.824;8.662;2023-08-06T11:33:51;5.65;;;3.50;;
24650;SDS011;12783;48.824;8.662;2023-08-06T11:36:31;7.57;;;3.67;;
24650;SDS011;12783;48.824;8.662;2023-08-06T11:39:00;7.15;;;3.72;;
24650;SDS011;12783;48.824;8.662;2023-08-06T11:41:29;13.52;;;4.00;;
24650;SDS011;12783;48.824;8.662;2023-08-06T11:43:56;8.00;;;3.85;;
24650;SDS011;12783;48.824;8.662;2023-08-06T11:46:27;5.07;;;3.20;;
24650;SDS011;12783;48.824;8.662;2023-08-06T11:48:55;4.88;;;3.22;;
24650;SDS011;12783;48.824;8.662;2023-08-06T11:51:25;8.57;;;3.70;;
24650;SDS011;12783;48.824;8.662;2023-08-06T11:53:56;10.98;;;3.85;;
24650;SDS011;12783;48.824;8.662;2023-08-06T11:56:25;5.32;;;2.85;;
24650;SDS011;12783;48.824;8.662;2023-08-06T11:58:53;9.80;;;3.63;;
24650;SDS011;12783;48.824;8.662;2023-08-06T12:01:21;7.78;;;3.03;;
24650;SDS011;12783;48.824;8.662;2023-08-06T12:03:47;6.53;;;2.92;;
24650;SDS011;12783;48.824;8.662;2023-08-06T12:06:14;5.45;;;2.53;;
24650;SDS011;12783;48.824;8.662;2023-08-06T12:08:41;3.17;;;2.40;;
24650;SDS011;12783;48.824;8.662;2023-08-06T12:11:08;8.20;;;2.40;;
24650;SDS011;12783;48.824;8.662;2023-08-06T12:13:35;9.90;;;2.05;;
24650;SDS011;12783;48.824;8.662;2023-08-06T12:16:02;6.05;;;2.20;;
24650;SDS011;12783;48.824;8.662;2023-08-06T12:18:29;5.05;;;1.80;;
24650;SDS011;12783;48.824;8.662;2023-08-06T12:20:56;3.42;;;1.55;;
24650;SDS011;12783;48.824;8.662;2023-08-06T12:23:23;2.03;;;1.40;;
24650;SDS011;12783;48.824;8.662;2023-08-06T12:25:50;1.65;;;1.50;;
24650;SDS011;12783;48.824;8.662;2023-08-06T12:28:17;2.35;;;1.65;;
24650;SDS011;12783;48.824;8.662;2023-08-06T12:30:45;2.25;;;1.65;;
24650;SDS011;12783;48.824;8.662;2023-08-06T12:33:13;4.53;;;1.60;;
24650;SDS011;12783;48.824;8.662;2023-08-06T12:35:40;3.67;;;1.50;;
24650;SDS011;12783;48.824;8.662;2023-08-06T12:38:07;5.00;;;1.60;;
24650;SDS011;12783;48.824;8.662;2023-08-06T12:40:34;3.80;;;1.63;;
24650;SDS011;12783;48.824;8.662;2023-08-06T12:43:05;1.98;;;1.30;;
24650;SDS011;12783;48.824;8.662;2023-08-06T12:45:32;3.72;;;1.98;;
24650;SDS011;12783;48.824;8.662;2023-08-06T12:47:59;1.70;;;1.33;;
24650;SDS011;12783;48.824;8.662;2023-08-06T12:50:26;3.00;;;1.40;;
24650;SDS011;12783;48.824;8.662;2023-08-06T12:52:52;3.17;;;1.80;;
24650;SDS011;12783;48.824;8.662;2023-08-06T12:55:19;2.65;;;1.40;;
24650;SDS011;12783;48.824;8.662;2023-08-06T12:57:46;1.40;;;1.20;;
24650;SDS011;12783;48.824;8.662;2023-08-06T13:00:25;2.78;;;1.10;;
24650;SDS011;12783;48.824;8.662;2023-08-06T13:02:53;1.77;;;1.10;;
24650;SDS011;12783;48.824;8.662;2023-08-06T13:05:20;1.10;;;0.90;;
24650;SDS011;12783;48.824;8.662;2023-08-06T13:07:47;3.78;;;1.55;;
24650;SDS011;12783;48.824;8.662;2023-08-06T13:10:14;1.35;;;1.20;;
24650;SDS011;12783;48.824;8.662;2023-08-06T13:12:41;1.45;;;1.00;;
24650;SDS011;12783;48.824;8.662;2023-08-06T13:15:08;2.60;;;0.90;;
24650;SDS011;12783;48.824;8.662;2023-08-06T13:17:36;1.48;;;1.30;;
24650;SDS011;12783;48.824;8.662;2023-08-06T13:20:03;1.27;;;1.13;;
24650;SDS011;12783;48.824;8.662;2023-08-06T13:22:30;1.58;;;1.15;;
24650;SDS011;12783;48.824;8.662;2023-08-06T13:24:57;2.65;;;1.40;;
24650;SDS011;12783;48.824;8.662;2023-08-06T13:27:24;1.45;;;1.02;;
24650;SDS011;12783;48.824;8.662;2023-08-06T13:29:51;2.28;;;1.00;;
24650;SDS011;12783;48.824;8.662;2023-08-06T13:32:18;1.80;;;0.90;;
24650;SDS011;12783;48.824;8.662;2023-08-06T13:34:45;3.42;;;1.05;;
24650;SDS011;12783;48.824;8.662;2023-08-06T13:37:11;1.48;;;0.90;;
24650;SDS011;12783;48.824;8.662;2023-08-06T13:39:38;2.95;;;1.00;;
24650;SDS011;12783;48.824;8.662;2023-08-06T13:42:06;1.70;;;0.90;;
24650;SDS011;12783;48.824;8.662;2023-08-06T13:44:33;3.05;;;1.20;;
24650;SDS011;12783;48.824;8.662;2023-08-06T13:47:02;2.35;;;1.13;;
24650;SDS011;12783;48.824;8.662;2023-08-06T13:49:29;2.03;;;1.17;;
24650;SDS011;12783;48.824;8.662;2023-08-06T13:51:56;1.77;;;1.10;;
24650;SDS011;12783;48.824;8.662;2023-08-06T13:57:08;1.55;;;0.90;;
24650;SDS011;12783;48.824;8.662;2023-08-06T13:59:34;8.40;;;0.90;;
24650;SDS011;12783;48.824;8.662;2023-08-06T14:02:01;3.08;;;1.30;;
24650;SDS011;12783;48.824;8.662;2023-08-06T14:04:29;6.38;;;1.30;;
24650;SDS011;12783;48.824;8.662;2023-08-06T14:06:56;2.10;;;1.17;;
24650;SDS011;12783;48.824;8.662;2023-08-06T14:09:23;1.58;;;1.02;;
24650;SDS011;12783;48.824;8.662;2023-08-06T14:11:50;2.20;;;1.30;;
24650;SDS011;12783;48.824;8.662;2023-08-06T14:14:17;1.67;;;1.00;;
24650;SDS011;12783;48.824;8.662;2023-08-06T14:16:44;7.80;;;1.20;;
24650;SDS011;12783;48.824;8.662;2023-08-06T14:19:10;0.80;;;0.80;;
24650;SDS011;12783;48.824;8.662;2023-08-06T14:21:37;2.55;;;1.00;;
24650;SDS011;12783;48.824;8.662;2023-08-06T14:24:04;1.88;;;1.10;;
24650;SDS011;12783;48.824;8.662;2023-08-06T14:26:31;1.83;;;1.05;;
24650;SDS011;12783;48.824;8.662;2023-08-06T14:28:58;0.73;;;0.73;;
24650;SDS011;12783;48.824;8.662;2023-08-06T14:31:25;2.08;;;1.00;;
24650;SDS011;12783;48.824;8.662;2023-08-06T14:33:52;1.30;;;1.00;;
24650;SDS011;12783;48.824;8.662;2023-08-06T14:36:19;2.45;;;0.80;;
24650;SDS011;12783;48.824;8.662;2023-08-06T14:38:46;2.95;;;0.90;;
24650;SDS011;12783;48.824;8.662;2023-08-06T14:41:25;2.40;;;1.00;;
24650;SDS011;12783;48.824;8.662;2023-08-06T14:43:52;1.65;;;1.10;;
24650;SDS011;12783;48.824;8.662;2023-08-06T14:46:20;2.45;;;1.17;;
24650;SDS011;12783;48.824;8.662;2023-08-06T14:48:47;7.22;;;1.10;;
24650;SDS011;12783;48.824;8.662;2023-08-06T14:51:14;0.70;;;0.70;;
24650;SDS011;12783;48.824;8.662;2023-08-06T14:53:41;3.78;;;1.05;;
24650;SDS011;12783;48.824;8.662;2023-08-06T14:56:08;1.05;;;0.73;;
24650;SDS011;12783;48.824;8.662;2023-08-06T14:58:35;2.78;;;0.80;;
24650;SDS011;12783;48.824;8.662;2023-08-06T15:01:02;2.22;;;1.02;;
24650;SDS011;12783;48.824;8.662;2023-08-06T15:03:29;0.82;;;0.70;;
24650;SDS011;12783;48.824;8.662;2023-08-06T15:05:57;1.13;;;0.70;;
24650;SDS011;12783;48.824;8.662;2023-08-06T15:08:25;2.03;;;1.00;;
24650;SDS011;12783;48.824;8.662;2023-08-06T15:10:52;1.83;;;1.02;;
24650;SDS011;12783;48.824;8.662;2023-08-06T15:13:19;1.98;;;0.90;;